createdAt,value
2017-09-23T00:01:10.526Z,7.50
2017-09-23T00:03:37.960Z,7.97
2017-09-23T00:06:05.400Z,8.80
2017-09-23T00:08:32.848Z,8.90
2017-09-23T00:11:00.283Z,7.70
2017-09-23T00:13:28.494Z,8.47
2017-09-23T00:15:55.924Z,7.57
2017-09-23T00:18:24.121Z,8.43
2017-09-23T00:20:52.330Z,8.30
2017-09-23T00:23:19.756Z,8.67
2017-09-23T00:25:47.968Z,8.07
2017-09-23T00:28:15.391Z,9.40
2017-09-23T00:30:43.618Z,7.87
2017-09-23T00:33:11.059Z,9.10
2017-09-23T00:35:38.485Z,9.70
2017-09-23T00:38:05.926Z,9.47
2017-09-23T00:40:33.374Z,8.90
2017-09-23T00:43:00.816Z,9.33
2017-09-23T00:45:28.237Z,8.10
2017-09-23T00:47:55.690Z,9.33
2017-09-23T00:50:23.129Z,10.50
2017-09-23T00:52:50.589Z,7.97
2017-09-23T00:55:18.026Z,9.33
2017-09-23T00:57:45.471Z,9.50
2017-09-23T01:00:13.673Z,9.00
2017-09-23T01:02:41.123Z,10.50
2017-09-23T01:05:08.586Z,10.33
2017-09-23T01:07:36.034Z,8.57
2017-09-23T01:10:04.241Z,9.33
2017-09-23T01:12:31.680Z,9.13
2017-09-23T01:14:59.880Z,9.87
2017-09-23T01:17:27.871Z,10.17
2017-09-23T01:19:55.358Z,9.70
2017-09-23T01:33:53.624Z,9.87
2017-09-23T01:36:21.081Z,8.53
2017-09-23T01:38:48.517Z,8.80
2017-09-23T01:41:15.971Z,10.50
2017-09-23T01:43:43.439Z,9.37
2017-09-23T01:46:10.884Z,10.37
2017-09-23T01:48:38.349Z,9.73
2017-09-23T01:51:05.812Z,10.60
2017-09-23T01:53:33.288Z,11.07
2017-09-23T01:56:00.747Z,9.27
2017-09-23T01:58:28.212Z,10.10
2017-09-23T02:00:55.660Z,10.80
2017-09-23T02:03:23.131Z,12.47
2017-09-23T02:05:50.593Z,10.03
2017-09-23T02:08:18.058Z,10.00
2017-09-23T02:10:45.523Z,11.87
2017-09-23T02:13:12.977Z,11.00
2017-09-23T02:15:40.424Z,8.90
2017-09-23T02:18:07.884Z,10.30
2017-09-23T02:20:35.340Z,9.83
2017-09-23T02:23:02.789Z,9.73
2017-09-23T02:25:30.244Z,9.73
2017-09-23T02:27:57.692Z,9.50
2017-09-23T02:30:25.925Z,9.80
2017-09-23T02:32:53.376Z,9.77
2017-09-23T02:35:20.821Z,9.97
2017-09-23T02:37:48.285Z,8.20
2017-09-23T02:40:15.733Z,10.20
2017-09-23T02:42:43.188Z,9.37
2017-09-23T02:45:10.649Z,9.00
2017-09-23T02:47:38.876Z,10.27
2017-09-23T02:50:06.333Z,9.00
2017-09-23T02:52:33.804Z,9.10
2017-09-23T02:55:01.260Z,10.00
2017-09-23T02:57:28.712Z,7.80
2017-09-23T02:59:56.181Z,10.70
2017-09-23T03:02:23.632Z,9.93
2017-09-23T03:04:51.093Z,8.47
2017-09-23T03:07:18.534Z,9.83
2017-09-23T03:09:46.764Z,11.80
2017-09-23T03:12:14.228Z,10.10
2017-09-23T03:14:41.692Z,10.50
2017-09-23T03:17:09.912Z,12.97
2017-09-23T03:19:38.140Z,10.80
2017-09-23T03:22:05.600Z,10.50
2017-09-23T03:24:33.065Z,10.10
2017-09-23T03:27:00.525Z,11.83
2017-09-23T03:29:27.974Z,11.10
2017-09-23T03:31:55.438Z,10.47
2017-09-23T03:34:22.898Z,10.33
2017-09-23T03:36:50.360Z,11.00
2017-09-23T03:39:17.824Z,10.60
2017-09-23T03:41:45.284Z,11.07
2017-09-23T03:44:12.728Z,12.30
2017-09-23T03:46:40.207Z,10.40
2017-09-23T03:49:07.656Z,9.00
2017-09-23T03:51:35.103Z,11.03
2017-09-23T03:54:03.327Z,11.27
2017-09-23T03:56:30.780Z,10.73
2017-09-23T03:58:58.240Z,10.63
2017-09-23T04:01:25.698Z,11.50
2017-09-23T04:03:53.164Z,10.10
2017-09-23T04:06:20.621Z,9.80
2017-09-23T04:08:48.076Z,10.27
2017-09-23T04:11:15.524Z,11.00
2017-09-23T04:13:43.772Z,11.37
2017-09-23T04:16:11.216Z,11.80
2017-09-23T04:18:38.668Z,12.43
2017-09-23T04:21:06.128Z,12.00
2017-09-23T04:23:33.585Z,13.97
2017-09-23T04:26:01.042Z,12.17
2017-09-23T04:28:28.495Z,15.70
2017-09-23T04:30:56.028Z,14.60
2017-09-23T04:33:23.485Z,18.80
2017-09-23T04:35:50.964Z,20.93
2017-09-23T04:38:19.186Z,20.40
2017-09-23T04:40:46.633Z,16.30
2017-09-23T04:43:14.091Z,19.07
2017-09-23T04:45:41.552Z,19.10
2017-09-23T04:48:09.022Z,32.27
2017-09-23T04:50:36.475Z,29.57
2017-09-23T04:53:04.696Z,32.10
2017-09-23T04:55:32.158Z,34.47
2017-09-23T04:57:59.635Z,40.17
2017-09-23T05:00:27.088Z,34.53
2017-09-23T05:02:54.536Z,36.87
2017-09-23T05:05:22.000Z,34.83
2017-09-23T05:07:49.457Z,36.73
2017-09-23T05:10:16.912Z,38.30
2017-09-23T05:12:44.378Z,43.43
2017-09-23T05:15:11.835Z,40.90
2017-09-23T05:17:39.297Z,38.20
2017-09-23T05:20:06.771Z,39.53
2017-09-23T05:22:34.229Z,39.53
2017-09-23T05:25:01.682Z,35.03
2017-09-23T05:27:29.136Z,38.47
2017-09-23T05:29:56.592Z,36.63
2017-09-23T05:32:24.828Z,35.03
2017-09-23T05:34:52.292Z,39.80
2017-09-23T05:37:19.761Z,37.33
2017-09-23T05:39:47.220Z,39.40
2017-09-23T05:42:14.683Z,37.23
2017-09-23T05:44:42.140Z,35.67
2017-09-23T05:47:09.621Z,33.70
2017-09-23T05:49:37.068Z,33.53
2017-09-23T05:52:04.519Z,39.27
2017-09-23T05:54:31.980Z,37.90
2017-09-23T05:56:59.437Z,39.57
2017-09-23T05:59:26.897Z,36.17
2017-09-23T06:01:54.353Z,36.53
2017-09-23T06:04:21.825Z,40.70
2017-09-23T06:06:49.284Z,42.23
2017-09-23T06:09:16.752Z,37.00
2017-09-23T06:11:44.208Z,39.63
2017-09-23T06:14:11.688Z,35.20
2017-09-23T06:16:39.141Z,35.13
2017-09-23T06:19:06.592Z,35.53
2017-09-23T06:21:34.059Z,36.13
2017-09-23T06:24:01.511Z,38.97
2017-09-23T06:26:28.988Z,39.17
2017-09-23T06:28:56.444Z,34.67
2017-09-23T06:31:23.904Z,38.60
2017-09-23T06:33:51.369Z,34.83
2017-09-23T06:36:18.860Z,32.20
2017-09-23T06:38:46.346Z,34.60
2017-09-23T06:41:13.801Z,34.37
2017-09-23T06:43:41.268Z,36.33
2017-09-23T06:46:08.714Z,33.93
2017-09-23T06:48:36.187Z,38.13
2017-09-23T06:51:03.665Z,36.23
2017-09-23T06:53:31.124Z,37.47
2017-09-23T06:55:58.580Z,37.00
2017-09-23T06:58:26.052Z,34.80
2017-09-23T07:00:53.504Z,33.07
2017-09-23T07:03:20.969Z,35.23
2017-09-23T07:05:48.422Z,35.30
2017-09-23T07:08:15.899Z,32.20
2017-09-23T07:10:43.343Z,34.30
2017-09-23T07:13:10.796Z,35.57
2017-09-23T07:15:38.253Z,37.97
2017-09-23T07:18:05.704Z,34.40
2017-09-23T07:20:33.168Z,40.77
2017-09-23T07:23:00.617Z,37.40
2017-09-23T07:25:28.081Z,36.67
2017-09-23T07:27:55.532Z,34.33
2017-09-23T07:30:22.998Z,34.20
2017-09-23T07:32:50.456Z,39.77
2017-09-23T07:35:18.676Z,37.97
2017-09-23T07:37:46.136Z,37.27
2017-09-23T07:40:13.588Z,37.80
2017-09-23T07:42:41.828Z,34.40
2017-09-23T07:45:10.052Z,36.77
2017-09-23T07:47:37.520Z,35.40
2017-09-23T07:50:05.752Z,35.87
2017-09-23T07:52:33.977Z,37.00
2017-09-23T07:55:01.445Z,38.50
2017-09-23T07:57:28.902Z,34.93
2017-09-23T07:59:56.376Z,34.30
2017-09-23T08:02:23.923Z,33.80
2017-09-23T08:04:51.500Z,37.30
2017-09-23T08:07:18.973Z,36.07
2017-09-23T08:09:46.418Z,36.33
2017-09-23T08:12:13.893Z,36.87
2017-09-23T08:14:41.355Z,32.10
2017-09-23T08:17:08.812Z,31.77
2017-09-23T08:19:36.275Z,32.90
2017-09-23T08:22:04.089Z,33.17
2017-09-23T08:24:32.344Z,30.20
2017-09-23T08:26:59.786Z,29.50
2017-09-23T08:29:27.231Z,33.10
2017-09-23T08:31:54.729Z,30.87
2017-09-23T08:34:22.300Z,31.40
2017-09-23T08:36:50.996Z,32.00
2017-09-23T08:39:18.566Z,30.60
2017-09-23T08:41:46.779Z,29.80
2017-09-23T08:44:14.290Z,30.87
2017-09-23T08:46:41.853Z,32.30
2017-09-23T08:49:09.311Z,28.10
2017-09-23T08:51:36.778Z,29.33
2017-09-23T08:54:04.224Z,34.27
2017-09-23T08:56:31.784Z,28.70
2017-09-23T08:58:59.237Z,30.17
2017-09-23T09:01:26.895Z,31.70
2017-09-23T09:03:54.496Z,32.10
2017-09-23T09:06:21.961Z,31.67
2017-09-23T09:08:49.416Z,29.97
2017-09-23T09:11:16.988Z,29.07
2017-09-23T09:13:44.440Z,29.87
2017-09-23T09:16:12.034Z,31.80
2017-09-23T09:18:40.266Z,31.43
2017-09-23T09:21:07.717Z,27.03
2017-09-23T09:23:35.188Z,27.00
2017-09-23T09:26:02.748Z,26.80
2017-09-23T09:28:30.264Z,29.17
2017-09-23T09:30:57.819Z,30.17
2017-09-23T09:33:25.304Z,28.67
2017-09-23T09:35:54.264Z,26.70
2017-09-23T09:38:21.732Z,29.73
2017-09-23T09:40:49.189Z,30.57
2017-09-23T09:43:16.730Z,27.70
2017-09-23T09:45:44.200Z,27.27
2017-09-23T09:48:11.693Z,28.53
2017-09-23T09:50:39.169Z,27.80
2017-09-23T09:53:06.632Z,29.10
2017-09-23T09:58:37.605Z,29.97
2017-09-23T10:01:05.072Z,27.40
2017-09-23T10:03:33.288Z,27.83
2017-09-23T10:06:01.711Z,28.10
2017-09-23T10:08:29.377Z,27.53
2017-09-23T10:10:56.824Z,28.20
2017-09-23T10:13:36.197Z,30.03
2017-09-23T10:16:03.753Z,27.53
2017-09-23T10:18:31.227Z,28.27
2017-09-23T10:20:58.676Z,30.30
2017-09-23T10:23:26.137Z,31.17
2017-09-23T10:25:53.599Z,27.47
2017-09-23T10:28:21.072Z,26.10
2017-09-23T10:30:48.557Z,25.73
2017-09-23T10:33:16.020Z,27.73
2017-09-23T10:35:43.497Z,25.73
2017-09-23T10:38:11.715Z,23.40
2017-09-23T10:40:39.176Z,24.40
2017-09-23T10:43:06.641Z,25.50
2017-09-23T10:45:34.105Z,24.83
2017-09-23T10:48:01.586Z,28.47
2017-09-23T10:50:29.043Z,25.50
2017-09-23T10:52:56.813Z,28.97
2017-09-23T10:55:24.297Z,26.13
2017-09-23T10:57:51.785Z,23.97
2017-09-23T11:00:19.251Z,27.13
2017-09-23T11:02:47.488Z,28.13
2017-09-23T11:05:14.943Z,27.20
2017-09-23T11:07:42.639Z,26.00
2017-09-23T11:10:10.879Z,24.20
2017-09-23T11:12:38.359Z,29.97
2017-09-23T11:15:05.819Z,26.50
2017-09-23T11:17:33.291Z,27.60
2017-09-23T11:20:00.745Z,26.90
2017-09-23T11:22:28.244Z,23.77
2017-09-23T11:24:55.697Z,23.10
2017-09-23T11:27:23.159Z,25.77
2017-09-23T11:29:50.615Z,23.23
2017-09-23T11:32:18.068Z,25.13
2017-09-23T11:34:45.520Z,24.10
2017-09-23T11:37:12.992Z,24.00
2017-09-23T11:39:40.457Z,24.63
2017-09-23T11:42:07.913Z,23.50
2017-09-23T11:44:35.378Z,24.50
2017-09-23T11:47:02.825Z,23.67
2017-09-23T11:49:30.305Z,24.57
2017-09-23T11:51:57.765Z,23.20
2017-09-23T11:54:25.225Z,22.50
2017-09-23T11:56:52.680Z,22.00
2017-09-23T11:59:20.138Z,22.57
2017-09-23T12:01:47.600Z,24.10
2017-09-23T12:04:15.060Z,24.27
2017-09-23T12:06:42.524Z,22.63
2017-09-23T12:09:09.981Z,20.43
2017-09-23T12:11:37.443Z,19.97
2017-09-23T12:14:04.898Z,19.63
2017-09-23T12:16:32.371Z,18.00
2017-09-23T12:18:59.824Z,19.77
2017-09-23T12:21:27.275Z,18.67
2017-09-23T12:23:55.499Z,19.37
2017-09-23T12:26:22.956Z,21.23
2017-09-23T12:28:50.424Z,20.30
2017-09-23T12:31:17.876Z,19.47
2017-09-23T12:33:45.336Z,21.60
2017-09-23T12:36:12.794Z,20.80
2017-09-23T12:38:40.276Z,19.40
2017-09-23T12:41:07.729Z,20.10
2017-09-23T12:43:35.180Z,21.40
2017-09-23T12:46:02.640Z,18.50
2017-09-23T12:48:30.097Z,18.37
2017-09-23T12:50:57.570Z,19.50
2017-09-23T12:53:25.029Z,19.33
2017-09-23T12:55:52.512Z,21.60
2017-09-23T12:58:19.971Z,19.17
2017-09-23T13:00:47.431Z,20.67
2017-09-23T13:03:14.901Z,19.40
2017-09-23T13:05:42.348Z,18.90
2017-09-23T13:08:09.808Z,19.67
2017-09-23T13:10:37.273Z,18.50
2017-09-23T13:13:04.725Z,19.13
2017-09-23T13:15:32.166Z,17.83
2017-09-23T13:18:00.394Z,18.03
2017-09-23T13:20:27.851Z,16.30
2017-09-23T13:22:55.318Z,18.60
2017-09-23T13:25:22.775Z,16.23
2017-09-23T13:27:50.225Z,17.40
2017-09-23T13:30:17.694Z,15.33
2017-09-23T13:32:45.148Z,17.60
2017-09-23T13:35:12.620Z,18.40
2017-09-23T13:37:40.081Z,18.23
2017-09-23T13:40:07.537Z,15.90
2017-09-23T13:42:34.989Z,17.70
2017-09-23T13:45:02.473Z,18.37
2017-09-23T13:47:29.931Z,17.40
2017-09-23T13:49:57.385Z,17.20
2017-09-23T13:52:24.853Z,18.27
2017-09-23T13:54:52.303Z,16.60
2017-09-23T13:57:19.749Z,18.13
2017-09-23T13:59:47.955Z,14.23
2017-09-23T14:02:15.424Z,15.97
2017-09-23T14:04:42.887Z,15.87
2017-09-23T14:07:10.349Z,13.20
2017-09-23T14:09:37.796Z,14.63
2017-09-23T14:12:05.245Z,14.43
2017-09-23T14:14:33.462Z,15.63
2017-09-23T14:17:01.730Z,15.17
2017-09-23T14:19:29.189Z,15.00
2017-09-23T14:21:56.643Z,14.93
2017-09-23T14:24:24.104Z,14.77
2017-09-23T14:26:51.560Z,13.53
2017-09-23T14:29:19.805Z,15.67
2017-09-23T14:31:47.260Z,14.07
2017-09-23T14:34:14.716Z,13.37
2017-09-23T14:36:42.185Z,14.63
2017-09-23T14:39:09.635Z,13.17
2017-09-23T14:41:37.100Z,12.73
2017-09-23T14:44:04.559Z,13.90
2017-09-23T14:46:32.048Z,16.77
2017-09-23T14:48:59.501Z,13.70
2017-09-23T14:51:26.981Z,14.37
2017-09-23T14:53:54.444Z,15.93
2017-09-23T14:56:21.905Z,14.20
2017-09-23T14:58:49.374Z,17.20
2017-09-23T15:01:16.832Z,15.13
2017-09-23T15:03:44.293Z,14.47
2017-09-23T15:06:11.772Z,14.77
2017-09-23T15:08:40.012Z,15.40
2017-09-23T15:11:07.465Z,13.60
2017-09-23T15:13:34.952Z,12.90
2017-09-23T15:16:02.412Z,13.97
2017-09-23T15:18:29.864Z,13.37
2017-09-23T15:20:57.312Z,13.17
2017-09-23T15:23:24.759Z,13.50
2017-09-23T15:25:52.236Z,13.13
2017-09-23T15:28:19.696Z,13.13
2017-09-23T15:30:47.169Z,13.40
2017-09-23T15:33:14.623Z,13.77
2017-09-23T15:35:42.098Z,14.70
2017-09-23T15:38:09.567Z,14.90
2017-09-23T15:40:37.035Z,14.50
2017-09-23T15:43:04.492Z,14.90
2017-09-23T15:45:31.938Z,17.00
2017-09-23T15:47:59.413Z,15.93
2017-09-23T15:50:26.867Z,14.23
2017-09-23T15:52:54.323Z,14.90
2017-09-23T15:55:21.781Z,14.53
2017-09-23T15:57:49.245Z,13.93
2017-09-23T16:00:16.703Z,14.53
2017-09-23T16:02:44.179Z,12.60
2017-09-23T16:05:11.645Z,12.50
2017-09-23T16:07:39.145Z,13.43
2017-09-23T16:10:06.605Z,13.47
2017-09-23T16:12:34.060Z,13.73
2017-09-23T16:15:01.520Z,13.27
2017-09-23T16:17:28.981Z,12.90
2017-09-23T16:19:56.464Z,12.60
2017-09-23T16:22:23.976Z,13.90
2017-09-23T16:24:51.453Z,13.73
2017-09-23T16:27:18.913Z,13.87
2017-09-23T16:29:46.413Z,13.53
2017-09-23T16:32:13.881Z,16.17
2017-09-23T16:34:41.328Z,13.87
2017-09-23T16:37:08.795Z,13.30
2017-09-23T16:39:37.011Z,13.60
2017-09-23T16:42:05.237Z,14.63
2017-09-23T16:44:32.693Z,14.60
2017-09-23T16:47:00.148Z,15.97
2017-09-23T16:49:27.615Z,13.90
2017-09-23T16:51:55.098Z,14.30
2017-09-23T16:54:22.552Z,15.33
2017-09-23T16:56:50.040Z,15.73
2017-09-23T16:59:17.525Z,16.37
2017-09-23T17:01:45.744Z,15.63
2017-09-23T17:04:13.207Z,14.63
2017-09-23T17:06:40.665Z,14.37
2017-09-23T17:09:08.156Z,14.93
2017-09-23T17:11:35.604Z,15.50
2017-09-23T17:14:03.092Z,17.80
2017-09-23T17:16:30.540Z,16.87
2017-09-23T17:18:58.009Z,16.47
2017-09-23T17:21:25.471Z,17.30
2017-09-23T17:23:53.001Z,18.97
2017-09-23T17:26:20.473Z,17.27
2017-09-23T17:28:47.919Z,15.47
2017-09-23T17:31:15.384Z,17.43
2017-09-23T17:33:42.847Z,16.70
2017-09-23T17:36:10.331Z,15.80
2017-09-23T17:38:37.787Z,15.23
2017-09-23T17:41:05.252Z,14.33
2017-09-23T17:43:32.725Z,15.57
2017-09-23T17:46:00.180Z,17.60
2017-09-23T17:48:27.640Z,15.10
2017-09-23T17:50:55.096Z,16.43
2017-09-23T17:53:22.552Z,16.33
2017-09-23T17:55:50.011Z,16.10
2017-09-23T17:58:17.494Z,16.10
2017-09-23T18:00:44.975Z,18.60
2017-09-23T18:03:12.400Z,15.63
2017-09-23T18:05:39.864Z,17.30
2017-09-23T18:08:07.325Z,16.40
2017-09-23T18:10:34.788Z,16.27
2017-09-23T18:13:02.252Z,19.03
2017-09-23T18:15:29.740Z,18.57
2017-09-23T18:17:57.188Z,18.10
2017-09-23T18:20:24.669Z,17.10
2017-09-23T18:22:52.128Z,16.63
2017-09-23T18:25:19.593Z,16.60
2017-09-23T18:27:47.056Z,18.27
2017-09-23T18:30:14.508Z,17.87
2017-09-23T18:32:41.973Z,17.87
2017-09-23T18:35:09.437Z,19.87
2017-09-23T18:37:36.895Z,17.73
2017-09-23T18:40:04.344Z,16.30
2017-09-23T18:42:31.823Z,18.83
2017-09-23T18:44:59.272Z,16.00
2017-09-23T18:47:26.735Z,16.30
2017-09-23T18:49:54.200Z,16.90
2017-09-23T18:52:21.664Z,18.20
2017-09-23T18:54:49.135Z,17.57
2017-09-23T18:57:16.580Z,17.83
2017-09-23T18:59:44.043Z,18.30
2017-09-23T19:02:11.492Z,17.47
2017-09-23T19:04:38.973Z,16.93
2017-09-23T19:07:06.441Z,16.97
2017-09-23T19:09:33.897Z,16.63
2017-09-23T19:12:01.359Z,19.30
2017-09-23T19:14:28.803Z,15.37
2017-09-23T19:16:57.041Z,19.03
2017-09-23T19:19:24.500Z,19.53
2017-09-23T19:21:51.956Z,18.20
2017-09-23T19:24:19.409Z,17.40
2017-09-23T19:26:46.892Z,20.90
2017-09-23T19:29:14.344Z,20.60
2017-09-23T19:31:41.800Z,21.53
2017-09-23T19:34:09.258Z,19.80
2017-09-23T19:36:36.710Z,17.73
2017-09-23T19:39:04.169Z,18.43
2017-09-23T19:41:31.629Z,17.50
2017-09-23T19:43:59.117Z,14.53
2017-09-23T19:46:26.565Z,15.80
2017-09-23T19:48:54.051Z,19.70
2017-09-23T19:51:21.511Z,17.33
2017-09-23T19:53:48.961Z,18.93
2017-09-23T19:56:16.441Z,16.77
2017-09-23T19:58:43.892Z,16.57
2017-09-23T20:01:11.348Z,16.03
2017-09-23T20:06:32.077Z,18.97
2017-09-23T20:08:59.512Z,17.10
2017-09-23T20:11:26.981Z,17.53
2017-09-23T20:13:54.425Z,17.80
2017-09-23T20:22:31.441Z,17.40
2017-09-23T20:33:20.060Z,17.90
2017-09-23T20:35:47.502Z,17.20
2017-09-23T20:38:18.417Z,16.60
2017-09-23T20:40:45.864Z,17.70
2017-09-23T20:43:14.065Z,18.33
2017-09-23T20:45:41.509Z,19.30
2017-09-23T20:48:08.954Z,18.00
2017-09-23T20:50:37.165Z,19.63
2017-09-23T20:53:04.593Z,17.50
2017-09-23T20:55:32.816Z,18.57
2017-09-23T20:58:00.259Z,18.13
2017-09-23T21:00:27.719Z,17.70
2017-09-23T21:02:55.170Z,17.03
2017-09-23T21:05:23.393Z,20.80
2017-09-23T21:07:50.847Z,18.10
2017-09-23T21:10:18.306Z,17.60
2017-09-23T21:12:45.761Z,17.43
2017-09-23T21:15:13.206Z,19.00
2017-09-23T21:17:40.658Z,18.00
2017-09-23T21:20:08.878Z,17.67
2017-09-23T21:22:36.332Z,17.60
2017-09-23T21:25:03.789Z,17.73
2017-09-23T21:27:31.251Z,17.70
2017-09-23T21:29:58.686Z,17.93
2017-09-23T21:32:26.890Z,18.90
2017-09-23T21:34:54.342Z,18.90
2017-09-23T21:37:21.805Z,15.97
2017-09-23T21:39:49.250Z,16.50
2017-09-23T21:42:17.458Z,17.70
2017-09-23T21:44:44.908Z,18.93
2017-09-23T21:47:12.362Z,17.97
2017-09-23T21:49:40.569Z,18.80
2017-09-23T21:52:08.030Z,19.37
2017-09-23T21:54:35.481Z,19.97
2017-09-23T21:57:02.931Z,17.20
2017-09-23T21:59:31.125Z,17.17
2017-09-23T22:01:58.586Z,19.57
2017-09-23T22:04:26.033Z,19.13
2017-09-23T22:06:54.240Z,18.87
2017-09-23T22:09:21.670Z,20.43
2017-09-23T22:11:49.882Z,18.07
2017-09-23T22:14:17.322Z,18.87
2017-09-23T22:16:45.546Z,20.03
2017-09-23T22:19:12.991Z,19.93
2017-09-23T22:21:40.457Z,20.03
2017-09-23T22:24:07.901Z,18.70
2017-09-23T22:26:35.346Z,19.63
2017-09-23T22:29:03.562Z,17.87
2017-09-23T22:31:30.998Z,20.17
2017-09-23T22:33:58.441Z,17.07
2017-09-23T22:36:25.892Z,20.47
2017-09-23T22:38:53.351Z,19.43
2017-09-23T22:41:20.785Z,20.30
2017-09-23T22:43:48.253Z,15.90
2017-09-23T22:46:15.699Z,18.60
2017-09-23T22:48:43.133Z,20.97
2017-09-23T22:51:10.590Z,20.37
2017-09-23T22:53:38.806Z,20.93
2017-09-23T22:56:06.259Z,18.60
2017-09-23T22:58:33.702Z,18.73
2017-09-23T23:01:01.142Z,17.83
2017-09-23T23:03:29.361Z,19.40
2017-09-23T23:05:56.811Z,19.00
2017-09-23T23:08:24.316Z,20.90
2017-09-23T23:10:51.756Z,18.80
2017-09-23T23:13:19.207Z,19.07
2017-09-23T23:15:46.662Z,19.23
2017-09-23T23:18:14.182Z,20.93
2017-09-23T23:20:41.641Z,20.17
2017-09-23T23:23:09.075Z,19.00
2017-09-23T23:25:40.521Z,19.07
2017-09-23T23:28:07.962Z,19.53
2017-09-23T23:30:35.428Z,18.20
2017-09-23T23:33:03.617Z,18.77
2017-09-23T23:35:31.062Z,18.03
2017-09-23T23:37:59.270Z,20.83
2017-09-23T23:40:26.735Z,19.90
2017-09-23T23:42:54.192Z,19.93
2017-09-23T23:45:21.627Z,19.67
2017-09-23T23:47:49.833Z,17.70
2017-09-23T23:50:17.282Z,18.10
2017-09-23T23:52:44.741Z,17.57
2017-09-23T23:55:12.189Z,19.57
2017-09-23T23:57:40.402Z,19.33
